Time;durP1;ratioP1;P1;durP2;ratioP2;P2;SDS_P1;SDS_P2;PMS_P1;PMS_P2;Temp;Humidity;BMP_temperature;BMP_pressure;BME280_temperature;BME280_humidity;BME280_pressure;Samples;Min_cycle;Max_cycle;Signal;HPM_P1;HPM_P2
2023/07/26 00:00:12;;;;;;;5.30;4.68;;;12.90;99.90;;;;;;4877625;28;92876;-40
2023/07/26 00:02:37;;;;;;;6.38;4.63;;;12.90;99.90;;;;;;4875786;28;94214;-31
2023/07/26 00:05:04;;;;;;;6.47;4.82;;;12.90;99.90;;;;;;4850460;28;92843;-33
2023/07/26 00:07:29;;;;;;;5.63;4.57;;;12.80;99.90;;;;;;4850149;28;94779;-37
2023/07/26 00:09:55;;;;;;;5.45;4.97;;;12.80;99.90;;;;;;4849427;28;95021;-43
2023/07/26 00:12:20;;;;;;;5.97;4.65;;;12.90;99.90;;;;;;4856215;28;93313;-36
2023/07/26 00:14:46;;;;;;;4.70;4.30;;;12.80;99.90;;;;;;4880391;28;95576;-33
2023/07/26 00:17:12;;;;;;;5.32;4.82;;;12.90;99.90;;;;;;4879732;28;94843;-34
2023/07/26 00:19:37;;;;;;;7.10;4.63;;;12.90;99.90;;;;;;4869605;28;93282;-40
2023/07/26 00:22:03;;;;;;;5.32;4.82;;;12.90;99.90;;;;;;4861793;28;92283;-41
2023/07/26 00:24:29;;;;;;;10.98;6.22;;;12.80;99.90;;;;;;4874140;28;95503;-31
2023/07/26 00:26:54;;;;;;;7.50;6.13;;;12.80;99.90;;;;;;4873312;28;95338;-34
2023/07/26 00:29:20;;;;;;;5.88;5.28;;;12.80;99.90;;;;;;4865332;28;93292;-35
2023/07/26 00:31:45;;;;;;;5.93;5.03;;;12.80;99.90;;;;;;4847291;28;93095;-31
2023/07/26 00:34:11;;;;;;;6.13;5.40;;;12.70;99.90;;;;;;4842534;28;97809;-36
2023/07/26 00:36:37;;;;;;;6.40;5.80;;;12.80;99.90;;;;;;4856769;28;94006;-37
2023/07/26 00:39:03;;;;;;;5.97;5.38;;;12.70;99.90;;;;;;4870545;28;92223;-37
2023/07/26 00:41:29;;;;;;;5.93;5.40;;;12.70;99.90;;;;;;4867323;28;93610;-42
2023/07/26 00:43:55;;;;;;;5.10;4.60;;;12.70;99.90;;;;;;4881047;28;94724;-38
2023/07/26 00:46:21;;;;;;;4.90;4.47;;;12.70;99.90;;;;;;4861055;28;94632;-34
2023/07/26 00:48:47;;;;;;;5.57;5.03;;;12.70;99.90;;;;;;4844418;28;92200;-41
2023/07/26 00:51:13;;;;;;;11.25;4.97;;;12.70;99.90;;;;;;4858424;28;91945;-36
2023/07/26 00:53:39;;;;;;;6.28;5.68;;;12.70;99.90;;;;;;4852006;28;94683;-42
2023/07/26 00:56:05;;;;;;;10.75;5.65;;;12.80;99.90;;;;;;4858072;28;94621;-31
2023/07/26 00:58:31;;;;;;;6.72;4.90;;;12.80;99.90;;;;;;4869026;28;94726;-39
2023/07/26 01:00:58;;;;;;;7.78;5.97;;;12.80;99.90;;;;;;4880193;28;92806;-37
2023/07/26 01:03:24;;;;;;;7.57;4.80;;;12.70;99.90;;;;;;4880311;28;94577;-34
2023/07/26 01:06:12;;;;;;;4.53;4.13;;;12.70;99.90;;;;;;4866591;28;94990;-36
2023/07/26 01:08:56;;;;;;;6.00;5.40;;;12.70;99.90;;;;;;4846284;28;92157;-30
2023/07/26 01:11:32;;;;;;;5.68;5.10;;;12.80;99.90;;;;;;4873513;28;94458;-31
2023/07/26 01:14:22;;;;;;;6.00;5.40;;;12.70;99.90;;;;;;4861419;28;96878;-35
2023/07/26 01:16:48;;;;;;;5.53;5.10;;;12.70;99.90;;;;;;4876048;28;94256;-33
2023/07/26 01:19:13;;;;;;;5.25;4.80;;;12.70;99.90;;;;;;4869956;28;93677;-32
2023/07/26 01:21:39;;;;;;;6.00;5.40;;;12.70;99.90;;;;;;4873318;28;92133;-33
2023/07/26 01:24:05;;;;;;;5.30;4.72;;;12.70;99.90;;;;;;4860924;28;95821;-38
2023/07/26 01:26:30;;;;;;;6.22;5.35;;;12.70;99.90;;;;;;4863835;28;95863;-41
2023/07/26 01:28:56;;;;;;;7.10;5.65;;;12.70;99.90;;;;;;4869849;28;92761;-32
2023/07/26 01:31:24;;;;;;;11.13;5.53;;;12.70;99.90;;;;;;4849394;28;93434;-32
2023/07/26 01:33:52;;;;;;;8.13;5.07;;;12.70;99.90;;;;;;4842694;28;94638;-36
2023/07/26 01:36:21;;;;;;;5.38;4.95;;;12.70;99.90;;;;;;4868178;28;94829;-30
2023/07/26 01:38:47;;;;;;;6.53;5.38;;;12.70;99.90;;;;;;4873716;28;92724;-35
2023/07/26 01:41:15;;;;;;;5.22;4.63;;;12.70;99.90;;;;;;4873225;28;91795;-39
2023/07/26 01:43:41;;;;;;;5.22;3.30;;;12.70;99.90;;;;;;4868197;28;94519;-42
2023/07/26 01:46:10;;;;;;;5.22;4.82;;;12.70;99.90;;;;;;4865852;28;94720;-41
2023/07/26 01:48:36;;;;;;;7.00;5.45;;;12.70;99.90;;;;;;4861265;28;93209;-31
2023/07/26 01:51:01;;;;;;;6.05;5.03;;;12.70;99.90;;;;;;4859135;28;94140;-33
2023/07/26 01:53:27;;;;;;;5.88;5.28;;;12.70;99.90;;;;;;4842187;28;95800;-32
2023/07/26 01:55:52;;;;;;;6.05;5.20;;;12.70;99.90;;;;;;4842267;28;94489;-32
2023/07/26 01:58:18;;;;;;;8.40;4.90;;;12.70;99.90;;;;;;4841665;28;92272;-31
2023/07/26 02:00:44;;;;;;;5.65;5.05;;;12.60;99.90;;;;;;4850516;28;94986;-32
2023/07/26 02:03:09;;;;;;;6.43;5.35;;;12.60;99.90;;;;;;4858885;28;94918;-43
2023/07/26 02:05:35;;;;;;;6.82;5.15;;;12.60;99.90;;;;;;4846738;28;94347;-38
2023/07/26 02:08:01;;;;;;;6.90;5.85;;;12.60;99.90;;;;;;4851458;28;93841;-32
2023/07/26 02:10:26;;;;;;;11.13;5.57;;;12.60;99.90;;;;;;4842288;28;93485;-32
2023/07/26 02:12:52;;;;;;;11.00;5.00;;;12.70;99.90;;;;;;4841931;28;96414;-34
2023/07/26 02:15:17;;;;;;;5.35;4.85;;;12.60;99.90;;;;;;4844253;28;96027;-42
2023/07/26 02:17:43;;;;;;;8.55;5.63;;;12.60;99.90;;;;;;4843689;28;93697;-42
2023/07/26 02:20:09;;;;;;;6.47;5.35;;;12.60;99.90;;;;;;4843250;28;94065;-43
2023/07/26 02:22:35;;;;;;;4.90;4.55;;;12.60;99.90;;;;;;4843335;28;95039;-39
2023/07/26 02:25:01;;;;;;;6.50;4.78;;;12.50;99.90;;;;;;4843392;28;94324;-32
2023/07/26 02:27:27;;;;;;;7.25;4.75;;;12.50;99.90;;;;;;4843322;28;93389;-41
2023/07/26 02:29:52;;;;;;;6.47;5.88;;;12.60;99.90;;;;;;4859666;28;93720;-35
2023/07/26 02:32:18;;;;;;;6.13;5.18;;;12.50;99.90;;;;;;4872304;28;97519;-45
2023/07/26 02:34:43;;;;;;;5.72;5.22;;;12.50;99.90;;;;;;4847712;28;94621;-33
2023/07/26 02:37:09;;;;;;;6.15;5.65;;;12.60;99.90;;;;;;4840155;28;94584;-34
2023/07/26 02:39:35;;;;;;;6.35;5.75;;;12.50;99.90;;;;;;4854571;28;93412;-31
2023/07/26 02:42:00;;;;;;;5.75;5.35;;;12.50;99.90;;;;;;4879225;28;93622;-32
2023/07/26 02:44:26;;;;;;;6.10;5.60;;;12.50;99.90;;;;;;4865384;28;94168;-39
2023/07/26 02:46:51;;;;;;;7.65;6.18;;;12.50;99.90;;;;;;4867555;28;93651;-34
2023/07/26 02:49:18;;;;;;;8.95;6.00;;;12.50;99.90;;;;;;4864785;28;94008;-43
2023/07/26 02:51:43;;;;;;;8.45;6.70;;;12.50;99.90;;;;;;4860648;28;94683;-39
2023/07/26 02:54:09;;;;;;;9.35;5.05;;;12.50;99.90;;;;;;4860091;28;94129;-39
2023/07/26 02:56:35;;;;;;;7.10;6.38;;;12.40;99.90;;;;;;4872106;28;93132;-32
2023/07/26 02:59:00;;;;;;;7.18;6.47;;;12.40;99.90;;;;;;4859052;28;92792;-35
2023/07/26 03:01:26;;;;;;;6.32;5.72;;;12.40;99.90;;;;;;4868960;28;95775;-34
2023/07/26 03:03:52;;;;;;;6.93;6.28;;;12.40;99.90;;;;;;4862789;28;96075;-34
2023/07/26 03:06:18;;;;;;;7.55;6.40;;;12.40;99.90;;;;;;4869640;28;93509;-31
2023/07/26 03:08:44;;;;;;;8.10;7.30;;;12.40;99.90;;;;;;4873667;28;94207;-32
2023/07/26 03:11:09;;;;;;;7.05;6.30;;;12.30;99.90;;;;;;4859458;28;95190;-35
2023/07/26 03:13:35;;;;;;;8.40;7.57;;;12.30;99.90;;;;;;4874285;28;93933;-40
2023/07/26 03:16:01;;;;;;;7.28;6.53;;;12.30;99.90;;;;;;4878948;28;94154;-33
2023/07/26 03:18:26;;;;;;;7.45;6.68;;;12.30;99.90;;;;;;4864197;28;92338;-35
2023/07/26 03:20:52;;;;;;;9.98;7.30;;;12.20;99.90;;;;;;4878734;28;93981;-35
2023/07/26 03:23:17;;;;;;;6.88;6.18;;;12.20;99.90;;;;;;4860880;28;94867;-30
2023/07/26 03:25:43;;;;;;;7.10;6.40;;;12.20;99.90;;;;;;4860064;28;93836;-37
2023/07/26 03:28:09;;;;;;;9.45;7.03;;;12.20;99.90;;;;;;4858943;28;92617;-35
2023/07/26 03:30:34;;;;;;;7.35;6.25;;;12.20;99.90;;;;;;4859738;28;95187;-34
2023/07/26 03:33:00;;;;;;;7.28;6.60;;;12.10;99.90;;;;;;4846925;28;96226;-32
2023/07/26 03:35:25;;;;;;;8.10;7.07;;;12.10;99.90;;;;;;4858724;28;93376;-32
2023/07/26 03:37:51;;;;;;;10.13;6.80;;;12.10;99.90;;;;;;4847151;28;93757;-39
2023/07/26 03:40:17;;;;;;;9.80;5.88;;;12.10;99.90;;;;;;4841799;28;95733;-37
2023/07/26 03:42:42;;;;;;;8.80;7.00;;;12.10;99.90;;;;;;4841588;28;94139;-33
2023/07/26 03:45:09;;;;;;;7.68;6.88;;;12.10;99.90;;;;;;4859486;28;92640;-36
2023/07/26 03:47:34;;;;;;;7.53;6.82;;;12.00;99.90;;;;;;4847177;28;94490;-43
2023/07/26 03:50:00;;;;;;;7.50;6.18;;;12.00;99.90;;;;;;4840666;28;96208;-32
2023/07/26 03:52:25;;;;;;;7.32;6.72;;;12.00;99.90;;;;;;4840746;28;95981;-35
2023/07/26 03:54:51;;;;;;;10.00;7.18;;;12.00;99.90;;;;;;4853977;28;94707;-36
2023/07/26 03:57:17;;;;;;;8.57;7.20;;;12.10;99.90;;;;;;4840428;28;94448;-36
2023/07/26 03:59:42;;;;;;;8.65;7.60;;;12.10;99.90;;;;;;4841381;28;94874;-42
2023/07/26 04:02:08;;;;;;;9.02;6.40;;;12.00;99.90;;;;;;4865095;28;94347;-36
2023/07/26 04:04:35;;;;;;;7.93;7.13;;;12.00;99.90;;;;;;4841971;28;94992;-42
2023/07/26 04:07:01;;;;;;;7.88;6.88;;;12.10;99.90;;;;;;4856412;28;91815;-33
2023/07/26 04:09:27;;;;;;;8.40;7.70;;;12.10;99.90;;;;;;4848486;28;94165;-34
2023/07/26 04:11:55;;;;;;;10.20;6.72;;;12.10;99.90;;;;;;4839452;28;94772;-34
2023/07/26 04:14:21;;;;;;;;;;;12.10;99.90;;;;;;4841666;28;93864;-42
2023/07/26 04:16:47;;;;;;;9.20;7.43;;;12.10;99.90;;;;;;4842648;28;93699;-37
2023/07/26 04:19:12;;;;;;;7.88;7.03;;;12.10;99.90;;;;;;4840297;28;94841;-41
2023/07/26 04:21:38;;;;;;;7.60;6.88;;;12.10;99.90;;;;;;4853081;28;94113;-32
2023/07/26 04:24:04;;;;;;;10.18;5.97;;;12.10;99.90;;;;;;4854388;28;94212;-33
2023/07/26 04:26:30;;;;;;;9.35;7.43;;;12.20;99.90;;;;;;4847247;28;93294;-34
2023/07/26 04:28:55;;;;;;;7.80;7.03;;;12.30;99.90;;;;;;4849274;28;96304;-37
2023/07/26 04:31:21;;;;;;;8.02;6.85;;;12.30;99.90;;;;;;4850816;28;94460;-35
2023/07/26 04:33:48;;;;;;;7.25;6.55;;;12.30;99.90;;;;;;4873867;28;94026;-36
2023/07/26 04:36:14;;;;;;;7.22;6.53;;;12.40;99.90;;;;;;4862581;28;93532;-38
2023/07/26 04:38:39;;;;;;;12.40;6.68;;;12.40;99.90;;;;;;4861548;28;96521;-34
2023/07/26 04:41:05;;;;;;;9.70;6.70;;;12.50;99.90;;;;;;4861978;28;94853;-32
2023/07/26 04:43:31;;;;;;;7.40;6.70;;;12.60;99.90;;;;;;4879744;28;92292;-36
2023/07/26 04:45:57;;;;;;;7.55;6.82;;;12.60;99.90;;;;;;4880801;28;93567;-31
2023/07/26 04:48:22;;;;;;;7.22;6.55;;;12.60;99.90;;;;;;4860464;28;94214;-31
2023/07/26 04:50:49;;;;;;;7.50;6.60;;;12.60;99.90;;;;;;4874174;28;94618;-32
2023/07/26 04:53:16;;;;;;;7.82;6.88;;;12.70;99.90;;;;;;4876804;28;94448;-36
2023/07/26 04:55:48;;;;;;;6.88;6.28;;;12.70;99.90;;;;;;4866969;28;93066;-31
2023/07/26 04:58:14;;;;;;;7.25;6.60;;;12.80;99.90;;;;;;4849565;28;94637;-36
2023/07/26 05:00:40;;;;;;;10.85;6.70;;;12.90;99.90;;;;;;4864536;28;94230;-43
2023/07/26 05:03:07;;;;;;;7.65;6.85;;;13.00;99.90;;;;;;4871177;28;93789;-33
2023/07/26 05:05:33;;;;;;;12.80;6.65;;;13.10;99.90;;;;;;4853866;28;93066;-42
2023/07/26 05:07:59;;;;;;;8.00;5.60;;;13.20;99.90;;;;;;4840529;28;94883;-39
2023/07/26 05:10:25;;;;;;;6.38;5.80;;;13.30;99.90;;;;;;4852026;28;94467;-30
2023/07/26 05:12:52;;;;;;;7.88;5.95;;;13.30;99.90;;;;;;4842034;28;94242;-38
2023/07/26 05:15:18;;;;;;;6.47;5.72;;;13.20;99.90;;;;;;4843103;28;93468;-41
2023/07/26 05:17:44;;;;;;;6.93;5.60;;;13.30;99.90;;;;;;4841436;28;94392;-34
2023/07/26 05:20:10;;;;;;;8.57;6.85;;;13.20;99.90;;;;;;4843425;28;94697;-31
2023/07/26 05:22:36;;;;;;;7.82;6.07;;;13.20;99.90;;;;;;4842707;28;93138;-36
2023/07/26 05:25:02;;;;;;;8.73;6.55;;;13.20;99.90;;;;;;4841794;28;92178;-33
2023/07/26 05:27:28;;;;;;;6.85;6.18;;;13.20;99.90;;;;;;4841513;28;95825;-42
2023/07/26 05:29:54;;;;;;;6.47;5.95;;;13.20;99.90;;;;;;4854014;28;95441;-32
2023/07/26 05:32:20;;;;;;;8.32;6.05;;;13.30;99.90;;;;;;4840002;28;93625;-31
2023/07/26 05:34:45;;;;;;;8.15;6.25;;;13.30;99.90;;;;;;4841144;28;92802;-34
2023/07/26 05:37:11;;;;;;;6.93;6.32;;;13.60;99.90;;;;;;4852710;28;94635;-33
2023/07/26 05:39:37;;;;;;;7.05;6.35;;;13.80;99.90;;;;;;4841932;28;94668;-32
2023/07/26 05:42:02;;;;;;;3.67;2.70;;;13.80;99.90;;;;;;4849267;28;92897;-37
2023/07/26 05:44:28;;;;;;;6.05;5.45;;;13.80;99.90;;;;;;4846915;28;93230;-31
2023/07/26 05:46:54;;;;;;;7.72;5.97;;;13.70;99.90;;;;;;4841037;28;94703;-34
2023/07/26 05:49:20;;;;;;;6.90;6.28;;;13.70;99.90;;;;;;4852675;28;94111;-32
2023/07/26 05:51:45;;;;;;;6.15;5.50;;;13.80;99.90;;;;;;4841411;28;96598;-41
2023/07/26 05:54:11;;;;;;;8.23;6.45;;;13.80;99.90;;;;;;4852081;28;94321;-39
2023/07/26 05:56:36;;;;;;;8.18;4.97;;;13.80;99.90;;;;;;4840553;28;94630;-44
2023/07/26 05:59:02;;;;;;;5.38;4.88;;;13.80;99.90;;;;;;4840846;28;94776;-32
2023/07/26 06:01:28;;;;;;;5.65;4.38;;;13.80;99.90;;;;;;4853047;28;94167;-34
2023/07/26 06:03:53;;;;;;;6.13;4.63;;;13.80;99.90;;;;;;4859567;28;94107;-33
2023/07/26 06:06:19;;;;;;;5.68;4.75;;;13.70;99.90;;;;;;4858452;28;95072;-35
2023/07/26 06:08:45;;;;;;;5.88;5.32;;;13.50;99.90;;;;;;4858680;28;94906;-34
2023/07/26 06:11:11;;;;;;;7.28;6.13;;;13.40;99.90;;;;;;4859414;28;94281;-31
2023/07/26 06:13:36;;;;;;;6.22;5.40;;;13.40;99.90;;;;;;4858797;28;92871;-33
2023/07/26 06:16:02;;;;;;;6.68;5.35;;;13.50;99.90;;;;;;4855738;28;95893;-37
2023/07/26 06:18:27;;;;;;;5.45;5.05;;;13.50;99.90;;;;;;4851446;28;95448;-39
2023/07/26 06:20:54;;;;;;;7.22;5.93;;;13.60;99.90;;;;;;4859229;28;93039;-34
2023/07/26 06:23:19;;;;;;;6.35;5.75;;;13.60;99.90;;;;;;4859512;28;94463;-38
2023/07/26 06:25:45;;;;;;;6.57;5.53;;;13.70;99.90;;;;;;4857896;28;94343;-43
2023/07/26 06:28:10;;;;;;;7.22;6.13;;;13.70;99.90;;;;;;4859423;28;94989;-32
2023/07/26 06:30:36;;;;;;;7.68;6.45;;;13.70;99.90;;;;;;4858478;28;94464;-39
2023/07/26 06:33:02;;;;;;;10.75;6.38;;;13.70;99.90;;;;;;4858869;28;93317;-33
2023/07/26 06:35:27;;;;;;;6.65;5.97;;;13.70;99.90;;;;;;4857121;28;94682;-35
2023/07/26 06:37:53;;;;;;;6.22;5.63;;;13.80;99.90;;;;;;4858234;28;94641;-43
2023/07/26 06:40:19;;;;;;;7.50;6.80;;;13.80;99.90;;;;;;4856738;28;94335;-37
2023/07/26 06:42:44;;;;;;;7.18;6.30;;;13.80;99.90;;;;;;4858391;28;94576;-42
2023/07/26 06:45:10;;;;;;;7.93;6.25;;;13.80;99.90;;;;;;4865884;28;94643;-32
2023/07/26 06:47:36;;;;;;;8.93;6.72;;;13.90;99.90;;;;;;4865500;28;95107;-31
2023/07/26 06:50:02;;;;;;;6.90;6.22;;;13.90;99.90;;;;;;4867871;28;93883;-35
2023/07/26 06:52:30;;;;;;;7.63;6.78;;;14.00;99.90;;;;;;4858301;28;94431;-32
2023/07/26 06:54:56;;;;;;;7.03;6.33;;;14.00;99.90;;;;;;4857899;28;94451;-37
2023/07/26 06:57:21;;;;;;;8.45;6.03;;;14.10;99.90;;;;;;4858385;28;95919;-33
2023/07/26 06:59:47;;;;;;;7.50;6.32;;;14.10;99.90;;;;;;4852437;28;93435;-37
2023/07/26 07:02:13;;;;;;;7.18;5.70;;;14.10;99.90;;;;;;4863898;28;94350;-42
2023/07/26 07:04:39;;;;;;;7.10;6.38;;;14.20;99.90;;;;;;4839714;28;96225;-36
2023/07/26 07:07:05;;;;;;;5.63;5.00;;;14.20;99.90;;;;;;4853646;28;95853;-30
2023/07/26 07:09:30;;;;;;;7.60;6.75;;;14.30;99.90;;;;;;4857763;28;92799;-32
2023/07/26 07:11:56;;;;;;;7.65;6.95;;;14.30;99.90;;;;;;4856747;28;92200;-35
2023/07/26 07:14:22;;;;;;;8.38;7.18;;;14.30;99.90;;;;;;4847658;28;94670;-33
2023/07/26 07:16:47;;;;;;;9.77;7.57;;;14.20;99.90;;;;;;4860709;28;94075;-32
2023/07/26 07:19:13;;;;;;;7.25;6.43;;;14.30;99.90;;;;;;4862271;28;93173;-33
2023/07/26 07:21:39;;;;;;;6.85;6.25;;;14.20;99.90;;;;;;4856720;28;94078;-40
2023/07/26 07:24:05;;;;;;;10.40;8.10;;;14.10;99.90;;;;;;4849795;28;94909;-33
2023/07/26 07:26:31;;;;;;;8.18;6.57;;;14.20;99.90;;;;;;4860618;28;94414;-44
2023/07/26 07:28:56;;;;;;;8.20;6.25;;;14.20;99.90;;;;;;4861489;28;94446;-34
2023/07/26 07:31:22;;;;;;;8.77;7.68;;;14.30;99.90;;;;;;4858121;28;93011;-32
2023/07/26 07:33:48;;;;;;;8.45;6.60;;;14.30;99.90;;;;;;4865364;28;94507;-33
2023/07/26 07:36:17;;;;;;;8.50;6.60;;;14.30;99.90;;;;;;4864194;28;94040;-34
2023/07/26 07:38:45;;;;;;;7.15;6.53;;;14.30;99.90;;;;;;4870154;28;93181;-36
2023/07/26 07:41:11;;;;;;;6.60;5.88;;;14.30;99.90;;;;;;4855439;28;94686;-39
2023/07/26 07:43:38;;;;;;;6.82;6.22;;;14.20;99.90;;;;;;4864806;28;94847;-36
2023/07/26 07:46:04;;;;;;;7.45;6.75;;;14.30;99.90;;;;;;4863789;28;95799;-36
2023/07/26 07:48:30;;;;;;;8.98;8.07;;;14.30;99.90;;;;;;4869199;28;93110;-35
2023/07/26 07:50:56;;;;;;;14.60;7.70;;;14.30;99.90;;;;;;4856929;28;92992;-32
2023/07/26 07:53:23;;;;;;;8.00;7.05;;;14.30;99.90;;;;;;4856519;28;95624;-38
2023/07/26 07:55:49;;;;;;;7.43;6.72;;;14.30;99.90;;;;;;4870998;28;95388;-37
2023/07/26 07:58:14;;;;;;;7.70;6.93;;;14.30;99.90;;;;;;4860963;28;93478;-34
2023/07/26 08:00:40;;;;;;;13.57;8.90;;;14.30;99.90;;;;;;4859695;28;93130;-34
2023/07/26 08:03:06;;;;;;;8.68;7.78;;;14.20;99.90;;;;;;4867136;28;95000;-36
2023/07/26 08:05:35;;;;;;;10.63;7.82;;;14.10;99.90;;;;;;4856170;28;94543;-38
2023/07/26 08:08:01;;;;;;;10.38;8.18;;;14.00;99.90;;;;;;4859402;28;94894;-32
2023/07/26 08:10:26;;;;;;;7.43;6.55;;;14.00;99.90;;;;;;4892072;23;94343;-37
2023/07/26 08:12:52;;;;;;;6.82;6.00;;;13.80;99.90;;;;;;4858498;28;96775;-35
2023/07/26 08:15:18;;;;;;;5.15;4.65;;;13.80;99.90;;;;;;4856780;28;95225;-35
2023/07/26 08:17:43;;;;;;;5.53;5.00;;;13.70;99.90;;;;;;4858557;28;94447;-38
2023/07/26 08:20:10;;;;;;;5.93;4.75;;;13.60;99.90;;;;;;4856306;28;92926;-34
2023/07/26 08:22:36;;;;;;;4.68;4.28;;;13.60;99.90;;;;;;4859057;28;93269;-38
2023/07/26 08:25:02;;;;;;;3.90;3.60;;;13.40;99.90;;;;;;4857750;28;96948;-35
2023/07/26 08:27:29;;;;;;;3.95;2.45;;;13.50;99.90;;;;;;4858172;28;94791;-36
2023/07/26 08:29:54;;;;;;;4.93;3.55;;;13.50;99.90;;;;;;4858601;28;93578;-31
2023/07/26 08:32:20;;;;;;;7.97;5.18;;;13.60;99.90;;;;;;4850323;28;94333;-33
2023/07/26 08:34:46;;;;;;;5.20;4.80;;;13.70;99.90;;;;;;4850425;28;94180;-44
2023/07/26 08:37:11;;;;;;;7.22;4.68;;;13.70;99.90;;;;;;4854230;28;94437;-35
2023/07/26 08:39:37;;;;;;;7.00;5.88;;;13.80;99.90;;;;;;4847283;28;94551;-43
2023/07/26 08:42:03;;;;;;;5.03;4.53;;;13.90;99.90;;;;;;4853589;28;94528;-34
2023/07/26 08:44:31;;;;;;;5.85;5.15;;;14.00;99.90;;;;;;4855973;28;95534;-40
2023/07/26 08:46:59;;;;;;;5.88;5.25;;;14.10;99.90;;;;;;4844072;28;95292;-42
2023/07/26 08:49:25;;;;;;;5.05;4.53;;;14.10;99.90;;;;;;4847374;28;94203;-33
2023/07/26 08:51:51;;;;;;;5.93;5.43;;;14.00;99.90;;;;;;4844076;28;94547;-34
2023/07/26 08:54:17;;;;;;;7.50;5.30;;;14.10;99.90;;;;;;4845783;28;94759;-37
2023/07/26 08:56:43;;;;;;;6.65;5.03;;;14.20;99.90;;;;;;4847647;28;92174;-35
2023/07/26 08:59:09;;;;;;;8.05;5.93;;;14.30;99.90;;;;;;4846680;28;91851;-37
2023/07/26 09:01:35;;;;;;;7.47;6.00;;;14.50;99.90;;;;;;4852792;28;95312;-35
2023/07/26 09:04:00;;;;;;;8.50;6.25;;;14.60;99.90;;;;;;4859203;28;94991;-33
2023/07/26 09:06:26;;;;;;;7.18;6.47;;;14.80;99.90;;;;;;4858509;28;94838;-33
2023/07/26 09:08:52;;;;;;;11.15;7.20;;;14.90;99.90;;;;;;4859488;28;94984;-34
2023/07/26 09:11:27;;;;;;;7.93;6.00;;;15.00;99.90;;;;;;4848145;28;94887;-35
2023/07/26 09:13:58;;;;;;;7.25;5.95;;;15.00;99.90;;;;;;4840675;28;93864;-42
2023/07/26 09:16:29;;;;;;;5.82;5.32;;;15.00;99.90;;;;;;4842645;28;94367;-36
2023/07/26 09:19:05;;;;;;;5.35;4.72;;;15.00;99.90;;;;;;4851297;28;95290;-34
2023/07/26 09:21:33;;;;;;;5.63;4.95;;;15.00;99.90;;;;;;4846426;28;94688;-34
2023/07/26 09:24:00;;;;;;;5.82;5.28;;;15.20;99.90;;;;;;4851987;28;93404;-41
2023/07/26 09:26:38;;;;;;;5.32;4.55;;;15.40;99.90;;;;;;4842372;28;93117;-35
2023/07/26 09:29:15;;;;;;;4.43;4.13;;;15.90;99.90;;;;;;4850942;28;94441;-37
2023/07/26 09:31:43;;;;;;;5.13;3.75;;;16.20;99.90;;;;;;4857716;28;95595;-36
2023/07/26 09:34:13;;;;;;;3.80;3.40;;;16.40;99.90;;;;;;4851181;28;95002;-44
2023/07/26 09:36:49;;;;;;;4.03;3.67;;;16.60;99.90;;;;;;4840765;28;94164;-34
2023/07/26 09:39:16;;;;;;;4.22;3.58;;;16.60;99.90;;;;;;4850231;28;94134;-33
2023/07/26 09:41:41;;;;;;;6.38;4.40;;;16.50;99.90;;;;;;4840245;28;95046;-40
2023/07/26 09:44:17;;;;;;;3.30;3.00;;;16.70;99.90;;;;;;4850310;28;94817;-41
2023/07/26 09:46:50;;;;;;;6.05;3.17;;;16.60;99.90;;;;;;4840061;28;93416;-33
2023/07/26 09:49:22;;;;;;;3.22;2.80;;;16.60;99.90;;;;;;4839844;28;92595;-45
2023/07/26 09:51:48;;;;;;;3.42;2.63;;;16.90;99.90;;;;;;4847333;28;95150;-36
2023/07/26 09:54:14;;;;;;;3.45;3.15;;;17.00;99.90;;;;;;4845157;28;95131;-34
2023/07/26 09:56:41;;;;;;;3.85;3.50;;;16.90;99.90;;;;;;4840175;28;93635;-34
2023/07/26 09:59:11;;;;;;;4.72;3.65;;;17.00;99.90;;;;;;4840437;28;92518;-36
2023/07/26 10:01:45;;;;;;;4.30;3.70;;;17.50;99.90;;;;;;4850985;28;94779;-33
2023/07/26 10:04:39;;;;;;;3.50;3.28;;;17.70;99.90;;;;;;4840500;28;94224;-34
2023/07/26 10:07:10;;;;;;;3.75;3.33;;;17.80;99.90;;;;;;4839358;28;94026;-40
2023/07/26 10:09:43;;;;;;;3.65;3.25;;;17.80;99.90;;;;;;4858595;28;94675;-35
2023/07/26 10:12:10;;;;;;;4.22;3.85;;;17.80;99.90;;;;;;4846359;28;94206;-40
2023/07/26 10:14:36;;;;;;;5.95;4.45;;;17.70;99.90;;;;;;4847763;28;94049;-39
2023/07/26 10:17:03;;;;;;;5.05;3.85;;;17.70;99.90;;;;;;4856824;28;92174;-37
2023/07/26 10:19:30;;;;;;;4.75;4.32;;;17.50;99.90;;;;;;4845925;28;95226;-33
2023/07/26 10:21:59;;;;;;;4.60;3.47;;;17.60;99.90;;;;;;4839704;28;95784;-35
2023/07/26 10:24:25;;;;;;;3.45;3.15;;;17.40;99.90;;;;;;4840078;28;95969;-37
2023/07/26 10:26:53;;;;;;;3.88;3.10;;;17.40;99.90;;;;;;4840500;28;92167;-37
2023/07/26 10:29:20;;;;;;;5.67;3.73;;;17.40;99.90;;;;;;4847691;28;94090;-42
2023/07/26 10:31:47;;;;;;;4.05;3.75;;;17.30;99.90;;;;;;4857168;28;94423;-33
2023/07/26 10:34:20;;;;;;;4.20;3.80;;;17.30;99.90;;;;;;4858197;28;94909;-34
2023/07/26 10:36:45;;;;;;;3.45;3.15;;;17.40;99.90;;;;;;4859018;28;92114;-37
2023/07/26 10:39:11;;;;;;;4.93;4.43;;;17.60;99.90;;;;;;4858362;28;93280;-37
2023/07/26 10:41:46;;;;;;;4.28;3.83;;;17.70;99.90;;;;;;4854563;28;94613;-42
2023/07/26 10:44:12;;;;;;;4.72;4.22;;;17.60;99.90;;;;;;4839519;28;95034;-37
2023/07/26 10:47:08;;;;;;;5.93;3.97;;;17.70;99.90;;;;;;4838865;28;95740;-39
2023/07/26 10:49:34;;;;;;;4.85;4.38;;;17.80;99.90;;;;;;4839901;28;94607;-44
2023/07/26 10:52:03;;;;;;;5.53;4.53;;;17.90;99.90;;;;;;4839708;28;94697;-40
2023/07/26 10:54:41;;;;;;;5.45;4.90;;;18.00;99.90;;;;;;4851221;28;95832;-35
2023/07/26 10:57:25;;;;;;;6.13;5.47;;;17.80;99.90;;;;;;4840757;28;92650;-36
2023/07/26 11:00:22;;;;;;;4.95;3.47;;;18.00;99.90;;;;;;4854329;28;93082;-38
2023/07/26 11:03:00;;;;;;;4.72;4.13;;;18.20;99.90;;;;;;4846803;28;93853;-39
2023/07/26 11:05:29;;;;;;;3.22;2.92;;;18.20;99.90;;;;;;4844117;28;94857;-35
2023/07/26 11:07:58;;;;;;;3.50;2.60;;;18.50;99.90;;;;;;4849317;28;92591;-33
2023/07/26 11:10:29;;;;;;;3.38;2.70;;;18.60;99.90;;;;;;4842743;28;92283;-35
2023/07/26 11:13:28;;;;;;;3.25;2.75;;;18.70;99.90;;;;;;4839331;28;96630;-38
2023/07/26 11:15:54;;;;;;;2.63;2.15;;;18.70;99.90;;;;;;4839884;28;93653;-37
2023/07/26 11:18:20;;;;;;;2.95;2.65;;;18.70;99.90;;;;;;4840015;28;94400;-40
2023/07/26 11:20:51;;;;;;;2.85;2.65;;;18.90;99.90;;;;;;4839397;28;93751;-34
2023/07/26 11:23:22;;;;;;;3.63;2.28;;;18.70;99.90;;;;;;4838745;28;94474;-40
2023/07/26 11:25:50;;;;;;;7.32;3.42;;;18.80;99.90;;;;;;4839932;28;96149;-36
2023/07/26 11:28:16;;;;;;;3.38;2.75;;;18.80;99.90;;;;;;4839136;28;94629;-36
2023/07/26 11:30:52;;;;;;;3.33;2.92;;;18.90;99.90;;;;;;4859469;28;92587;-39
2023/07/26 11:33:39;;;;;;;4.07;3.38;;;18.70;99.90;;;;;;4855798;28;95237;-35
2023/07/26 11:36:07;;;;;;;3.95;2.95;;;18.30;99.90;;;;;;4855443;28;93176;-34
2023/07/26 11:38:33;;;;;;;3.70;3.13;;;18.00;99.90;;;;;;4858431;28;95118;-34
2023/07/26 11:40:59;;;;;;;2.75;2.33;;;17.80;99.90;;;;;;4854855;28;93031;-39
2023/07/26 11:43:26;;;;;;;2.58;2.30;;;17.60;99.90;;;;;;4855987;28;95155;-33
2023/07/26 11:45:53;;;;;;;3.53;2.13;;;17.40;99.90;;;;;;4857091;28;93385;-35
2023/07/26 11:48:19;;;;;;;2.33;1.67;;;17.00;99.90;;;;;;4857315;28;93223;-34
2023/07/26 11:50:45;;;;;;;1.98;1.45;;;16.80;99.90;;;;;;4854610;28;94211;-37
2023/07/26 11:53:15;;;;;;;1.77;1.67;;;16.60;99.90;;;;;;4856377;28;95175;-34
2023/07/26 11:55:42;;;;;;;1.45;1.35;;;16.70;99.90;;;;;;4856574;28;94169;-34
2023/07/26 11:58:11;;;;;;;1.58;1.48;;;16.90;99.90;;;;;;4857583;28;93358;-37
2023/07/26 12:00:40;;;;;;;1.60;1.48;;;17.00;99.90;;;;;;4857325;28;93690;-39
2023/07/26 12:03:07;;;;;;;5.07;1.73;;;17.10;99.90;;;;;;4860826;28;95528;-33
2023/07/26 12:05:33;;;;;;;1.90;1.65;;;17.10;99.90;;;;;;4872184;28;97416;-34
2023/07/26 12:08:03;;;;;;;2.80;1.90;;;17.10;99.90;;;;;;4850136;28;93446;-44
2023/07/26 12:10:42;;;;;;;2.05;1.80;;;17.40;99.90;;;;;;4853223;28;92626;-35
2023/07/26 12:13:28;;;;;;;2.25;1.40;;;17.60;99.90;;;;;;4841364;28;94601;-35
2023/07/26 12:16:01;;;;;;;1.73;1.63;;;17.80;99.90;;;;;;4841323;28;94885;-36
2023/07/26 12:18:27;;;;;;;1.35;1.25;;;18.10;99.90;;;;;;4849783;28;93426;-39
2023/07/26 12:21:00;;;;;;;1.33;1.23;;;18.10;99.90;;;;;;4846771;28;94338;-34
2023/07/26 12:23:28;;;;;;;2.17;1.98;;;18.10;99.90;;;;;;4857137;28;95867;-38
2023/07/26 12:25:57;;;;;;;2.70;2.30;;;18.10;99.90;;;;;;4846474;28;94395;-39
2023/07/26 12:28:24;;;;;;;;;;;18.10;99.90;;;;;;4859401;28;94677;-42
2023/07/26 12:30:54;;;;;;;2.60;2.07;;;18.20;99.90;;;;;;4862083;28;92192;-40
2023/07/26 12:33:20;;;;;;;4.53;2.42;;;18.40;99.90;;;;;;4859690;28;94315;-40
2023/07/26 12:35:46;;;;;;;2.50;2.15;;;18.50;99.90;;;;;;4847202;28;94790;-37
2023/07/26 12:38:14;;;;;;;2.17;1.98;;;18.50;99.90;;;;;;4847046;28;93697;-35
2023/07/26 12:40:40;;;;;;;2.38;1.80;;;18.50;99.90;;;;;;4846449;28;92563;-43
2023/07/26 12:43:23;;;;;;;2.80;2.10;;;18.60;99.90;;;;;;4846321;28;95211;-34
2023/07/26 12:45:50;;;;;;;3.08;2.28;;;18.60;99.90;;;;;;4860611;28;94463;-35